Aérodrome :
LOGIN :

S'inscrire | Disclaimer

   EN    FR    IT 

 










Légende :    VFR   VFR Marginal   IFR   IFR Intensif   IFR Très Intensif
Visi : 
Plafond : 
>= 8 km
>= 3000ft
5 à 8 km
1000 à 3000 ft
1500m à 5 km
500 à 1000 ft
800 à 1500m
200 à 500 ft
< 800m
< 200 ft
Symboles :   Orages  Brouillard  Fortes neiges  Fortes précipitations  Vent > 20 kt
SIGMETs :   Divers  Orages  Givrage  Turbulence  Onde Orograph.  Cendres Volcan.






- Altitude de l'aérodrome : 12 ft
- Code IATA : NCE


LFMN - Nice

DERNIER METAR :
  • 290500Z 33008KT 9999 FEW015 22/16 Q1014 NOSIG

METARs EXPIRÉS :
  • 290430Z 33006KT 9999 FEW020 21/16 Q1014 NOSIG
  • 290400Z 33007KT 9999 FEW020 21/17 Q1014 NOSIG
  • 290330Z 33006KT 9999 FEW015 22/17 Q1014 NOSIG
  • 290300Z 34008KT 9999 FEW015 22/17 Q1013 NOSIG
  • 290230Z 33007KT 9999 FEW015 22/18 Q1013 NOSIG
  • 290200Z 33007KT 9999 FEW015 22/18 Q1014 NOSIG

TAF TAF LFMN
Valide du 29 à 03h jusqu'au 30 à 09h UTC


290200Z 2903/3009 04010KT CAVOK
BECMG 2910/2912 12005KT
BECMG 2918/2920 VRB03KT
TEMPO 3000/3009 BKN012
BECMG 3007/3009 09005KT
ATIS : +33 4 93 17 21 16



MET'MAP, la Météo Aéronautique d'un coup d'oeil ! - Copyright ORBIFLY Décembre 2007 - Disclaimer

ORBIFLY MET'MAP TEAM :

Programmation & Développement : Alexandra Zaïnal
Sur une idée originale de : Baudouin d'Aumeries
Assistance à la programmation : Marc-Olivier Méhu
Soutien technique & logistique : Manuel Goepfert

Contact : metmap@orbifly.com




SOURCES & CREDITS :

   NOAA